Time;durP1;ratioP1;P1;durP2;ratioP2;P2;SDS_P1;SDS_P2;PMS_P1;PMS_P2;Temp;Humidity;BMP_temperature;BMP_pressure;BME280_temperature;BME280_humidity;BME280_pressure;Samples;Min_cycle;Max_cycle;Signal;HPM_P1;HPM_P2
2023/03/05 00:01:47;;;;;;;22.55;5.20;;;;;;;2.84;100.00;102012.13;10442114;28;20045;-76
2023/03/05 00:06:48;;;;;;;13.05;4.22;;;;;;;2.77;100.00;102012.28;10438165;28;20059;-76
2023/03/05 00:11:48;;;;;;;12.65;5.07;;;;;;;2.68;100.00;102020.06;10440207;28;20083;-76
2023/03/05 00:16:49;;;;;;;10.07;3.67;;;;;;;2.63;100.00;102009.25;10441684;28;20400;-76
2023/03/05 00:21:49;;;;;;;11.02;4.45;;;;;;;2.55;100.00;102006.69;10416631;28;20091;-76
2023/03/05 00:26:50;;;;;;;14.80;4.95;;;;;;;2.48;100.00;102003.50;10404733;28;20114;-76
2023/03/05 00:31:50;;;;;;;12.98;3.67;;;;;;;2.43;100.00;102006.38;10441195;28;20068;-76
2023/03/05 00:36:51;;;;;;;12.45;4.38;;;;;;;2.34;100.00;102004.72;10449358;28;20052;-76
2023/03/05 00:41:52;;;;;;;10.85;2.78;;;;;;;2.30;100.00;101992.25;10419736;28;20060;-76
2023/03/05 00:46:52;;;;;;;11.70;3.72;;;;;;;2.29;100.00;101985.25;10446421;28;20124;-76
2023/03/05 00:51:52;;;;;;;14.35;4.63;;;;;;;2.27;100.00;101985.88;10488398;28;20174;-76
2023/03/05 00:56:53;;;;;;;11.57;3.47;;;;;;;2.26;100.00;101979.78;10463157;28;20060;-76
2023/03/05 01:01:53;;;;;;;13.35;3.45;;;;;;;2.30;100.00;101979.34;10447439;28;20481;-75
2023/03/05 01:06:54;;;;;;;16.13;4.13;;;;;;;2.31;100.00;101963.06;10425124;28;20056;-76
2023/03/05 01:11:55;;;;;;;9.00;3.60;;;;;;;2.28;100.00;101969.63;10490467;28;20510;-76
2023/03/05 01:16:55;;;;;;;15.60;3.90;;;;;;;2.25;100.00;101952.13;10488343;28;20067;-76
2023/03/05 01:21:55;;;;;;;8.85;4.20;;;;;;;2.23;100.00;101953.66;10487440;28;20082;-76
2023/03/05 01:26:56;;;;;;;15.43;5.60;;;;;;;2.23;100.00;101950.19;10482184;28;20085;-76
2023/03/05 01:31:56;;;;;;;14.13;5.18;;;;;;;2.20;100.00;101948.19;10489279;28;20123;-76
2023/03/05 01:36:57;;;;;;;8.63;5.68;;;;;;;2.17;100.00;101945.31;10455200;28;20373;-76
2023/03/05 01:41:57;;;;;;;11.85;3.88;;;;;;;2.17;100.00;101938.47;10445550;28;20041;-76
2023/03/05 01:46:58;;;;;;;20.05;6.00;;;;;;;2.14;100.00;101934.66;10449850;28;20093;-77
2023/03/05 01:52:16;;;;;;;9.57;3.53;;;;;;;2.11;100.00;101921.44;10469323;28;20067;-75
2023/03/05 01:57:20;;;;;;;17.55;6.32;;;;;;;2.09;100.00;101912.63;10462560;28;20043;-76
2023/03/05 02:02:23;;;;;;;8.88;4.05;;;;;;;2.08;100.00;101913.41;10427223;28;20527;-76
2023/03/05 02:07:24;;;;;;;9.93;4.95;;;;;;;2.08;100.00;101906.59;10446383;28;20033;-76
2023/03/05 02:12:24;;;;;;;20.27;5.20;;;;;;;2.06;100.00;101897.78;10443429;28;20045;-76
2023/03/05 02:17:28;;;;;;;14.20;5.00;;;;;;;2.02;100.00;101891.38;10445709;28;20120;-76
2023/03/05 02:22:28;;;;;;;10.75;4.50;;;;;;;2.01;100.00;101891.25;10444963;28;20167;-75
2023/03/05 02:27:33;;;;;;;18.27;3.80;;;;;;;1.99;100.00;101885.91;10443597;28;20165;-76
2023/03/05 02:32:34;;;;;;;7.32;3.58;;;;;;;2.19;100.00;101886.94;10441487;28;20594;-76
2023/03/05 02:37:34;;;;;;;9.35;4.50;;;;;;;2.14;100.00;101875.25;10415221;28;20040;-75
2023/03/05 02:42:35;;;;;;;11.85;3.70;;;;;;;1.99;100.00;101867.84;10485564;28;20028;-76
2023/03/05 02:47:35;;;;;;;11.75;4.85;;;;;;;1.89;100.00;101865.09;10465709;28;20162;-76
2023/03/05 02:52:36;;;;;;;10.35;5.40;;;;;;;1.82;100.00;101862.69;10485421;28;20035;-76
2023/03/05 02:57:36;;;;;;;7.97;4.00;;;;;;;1.76;100.00;101851.00;10474731;28;20058;-76
2023/03/05 03:02:37;;;;;;;7.95;4.90;;;;;;;1.71;100.00;101852.19;10465550;28;20041;-76
2023/03/05 03:07:38;;;;;;;14.13;5.63;;;;;;;1.67;100.00;101842.34;10434519;28;20068;-75
2023/03/05 03:12:39;;;;;;;14.68;6.40;;;;;;;1.67;100.00;101834.59;10485082;28;20043;-76
2023/03/05 03:17:40;;;;;;;15.13;5.77;;;;;;;1.68;100.00;101832.94;10481269;28;20174;-75
2023/03/05 03:22:40;;;;;;;15.60;7.53;;;;;;;1.66;100.00;101829.28;10484590;28;20037;-76
2023/03/05 03:27:41;;;;;;;12.07;5.10;;;;;;;1.65;100.00;101824.91;10464039;28;20033;-76
2023/03/05 03:32:42;;;;;;;11.32;5.70;;;;;;;1.67;100.00;101825.94;10462968;28;20040;-76
2023/03/05 03:37:42;;;;;;;14.40;4.68;;;;;;;1.65;100.00;101815.47;10449295;28;20484;-76
2023/03/05 03:42:43;;;;;;;23.35;6.10;;;;;;;1.67;100.00;101816.53;10464926;28;20396;-76
2023/03/05 03:47:43;;;;;;;15.00;4.88;;;;;;;1.70;100.00;101816.81;10481412;28;20066;-75
2023/03/05 03:52:44;;;;;;;16.65;5.07;;;;;;;1.70;100.00;101803.03;10452397;28;20381;-75
2023/03/05 03:57:44;;;;;;;11.82;4.65;;;;;;;1.76;100.00;101798.47;10448779;28;20064;-76
2023/03/05 04:02:45;;;;;;;15.13;4.88;;;;;;;1.68;100.00;101787.38;10444800;28;20068;-75
2023/03/05 04:07:45;;;;;;;13.23;5.70;;;;;;;1.73;100.00;101785.25;10450402;28;20068;-75
2023/03/05 04:12:46;;;;;;;16.33;6.03;;;;;;;1.66;100.00;101775.09;10491278;28;20472;-75
2023/03/05 04:17:46;;;;;;;10.35;4.70;;;;;;;1.59;100.00;101773.56;10485026;28;20145;-75
2023/03/05 04:22:47;;;;;;;13.77;3.72;;;;;;;1.54;100.00;101770.56;10415920;28;20061;-75
2023/03/05 04:27:47;;;;;;;14.65;6.82;;;;;;;1.63;100.00;101760.22;10448794;28;20041;-75
2023/03/05 04:32:48;;;;;;;9.80;4.35;;;;;;;1.75;100.00;101743.34;10449037;28;20037;-75
2023/03/05 04:37:48;;;;;;;16.10;4.82;;;;;;;1.77;100.00;101740.91;10449080;28;20041;-76
2023/03/05 04:42:49;;;;;;;10.57;5.53;;;;;;;1.66;100.00;101737.28;10431676;28;20048;-75
2023/03/05 04:47:49;;;;;;;11.77;3.78;;;;;;;1.55;100.00;101727.59;10447293;28;20060;-76
2023/03/05 04:52:50;;;;;;;14.05;5.65;;;;;;;1.55;100.00;101740.47;10448411;28;20075;-75
2023/03/05 04:57:50;;;;;;;21.08;6.25;;;;;;;1.56;100.00;101737.13;10466314;28;20040;-75
2023/03/05 05:02:51;;;;;;;18.33;5.55;;;;;;;1.56;100.00;101724.25;10440805;28;20115;-75
2023/03/05 05:07:55;;;;;;;14.48;5.00;;;;;;;1.66;100.00;101726.97;10445985;28;20045;-75
2023/03/05 05:12:56;;;;;;;12.85;6.22;;;;;;;1.57;100.00;101713.16;10446971;28;20036;-75
2023/03/05 05:17:56;;;;;;;16.55;5.53;;;;;;;1.53;100.00;101716.19;10470059;28;20064;-76
2023/03/05 05:22:57;;;;;;;13.45;6.78;;;;;;;1.54;100.00;101718.94;10444654;28;20040;-75
2023/03/05 05:27:57;;;;;;;24.75;7.70;;;;;;;1.55;100.00;101713.03;10452357;28;20057;-75
2023/03/05 05:32:58;;;;;;;18.33;6.10;;;;;;;1.56;100.00;101714.84;10419049;28;20612;-75
2023/03/05 05:37:58;;;;;;;23.40;8.05;;;;;;;1.55;100.00;101714.69;10410233;28;20072;-75
2023/03/05 05:42:59;;;;;;;16.80;7.25;;;;;;;1.47;100.00;101716.53;10487893;28;20068;-75
2023/03/05 05:47:59;;;;;;;14.43;6.00;;;;;;;1.45;100.00;101710.31;10488194;28;20068;-75
2023/03/05 05:53:00;;;;;;;14.88;5.82;;;;;;;1.46;100.00;101712.13;10446472;28;20108;-75
2023/03/05 05:58:00;;;;;;;14.98;6.22;;;;;;;1.43;100.00;101707.56;10446447;28;20136;-76
2023/03/05 06:03:01;;;;;;;14.85;8.02;;;;;;;1.38;100.00;101706.19;10487211;28;20063;-76
2023/03/05 06:08:01;;;;;;;15.85;7.43;;;;;;;1.41;100.00;101705.59;10452487;28;20089;-75
2023/03/05 06:13:02;;;;;;;13.70;6.65;;;;;;;1.39;100.00;101697.69;10454949;28;20044;-75
2023/03/05 06:18:02;;;;;;;18.08;8.80;;;;;;;1.40;100.00;101690.88;10441786;28;20044;-75
2023/03/05 06:23:03;;;;;;;28.75;7.65;;;;;;;1.40;100.00;101691.78;10444382;28;20541;-76
2023/03/05 06:28:03;;;;;;;28.85;7.68;;;;;;;1.40;100.00;101684.03;10444038;28;20044;-74
2023/03/05 06:33:05;;;;;;;16.10;7.78;;;;;;;1.41;100.00;101679.81;10443833;28;20052;-77
2023/03/05 06:38:06;;;;;;;20.88;9.80;;;;;;;1.45;100.00;101685.41;10448326;28;20499;-75
2023/03/05 06:43:06;;;;;;;12.75;7.07;;;;;;;1.49;100.00;101677.97;10446511;28;20060;-76
2023/03/05 06:48:07;;;;;;;21.00;8.88;;;;;;;1.54;100.00;101687.06;10453169;28;20041;-75
2023/03/05 06:53:09;;;;;;;15.40;8.13;;;;;;;1.57;100.00;101684.78;10418569;28;20073;-75
2023/03/05 06:58:09;;;;;;;16.77;7.38;;;;;;;1.63;100.00;101687.94;10456749;28;20442;-76
2023/03/05 07:03:10;;;;;;;16.48;8.55;;;;;;;1.70;100.00;101673.97;10442415;28;20045;-75
2023/03/05 07:08:10;;;;;;;19.02;8.25;;;;;;;1.80;100.00;101679.25;10422729;28;20049;-75
2023/03/05 07:13:11;;;;;;;16.73;7.72;;;;;;;1.94;100.00;101682.25;10430173;28;20044;-75
2023/03/05 07:18:11;;;;;;;19.95;9.27;;;;;;;2.05;100.00;101674.75;10413820;28;20068;-76
2023/03/05 07:23:12;;;;;;;14.75;8.57;;;;;;;2.22;100.00;101669.38;10426918;28;20924;-75
2023/03/05 07:28:12;;;;;;;15.18;8.20;;;;;;;2.30;100.00;101663.25;10396329;28;20061;-75
2023/03/05 07:33:13;;;;;;;13.57;7.78;;;;;;;2.38;100.00;101656.22;10438231;28;20055;-75
2023/03/05 07:38:13;;;;;;;17.77;9.82;;;;;;;2.46;100.00;101657.84;10441870;28;20485;-75
2023/03/05 07:43:14;;;;;;;15.15;8.35;;;;;;;2.64;100.00;101659.53;10400398;28;20116;-75
2023/03/05 07:48:16;;;;;;;15.82;8.88;;;;;;;2.87;100.00;101655.56;10419035;28;20033;-75
2023/03/05 07:53:16;;;;;;;13.68;8.93;;;;;;;2.82;100.00;101643.91;10470184;28;20036;-75
2023/03/05 07:58:17;;;;;;;14.70;8.82;;;;;;;2.76;100.00;101643.34;10497101;28;20068;-75
2023/03/05 08:03:18;;;;;;;17.58;7.13;;;;;;;2.83;100.00;101645.72;10447160;28;20097;-75
2023/03/05 08:08:18;;;;;;;12.05;7.35;;;;;;;2.76;100.00;101641.66;10438059;28;20124;-75
2023/03/05 08:13:19;;;;;;;12.80;8.23;;;;;;;2.81;100.00;101642.06;10474214;28;20048;-75
2023/03/05 08:18:19;;;;;;;16.35;7.90;;;;;;;2.99;100.00;101636.75;10439325;28;20643;-75
2023/03/05 08:23:20;;;;;;;20.83;9.32;;;;;;;2.87;100.00;101634.00;10440145;28;20540;-75
2023/03/05 08:28:20;;;;;;;22.38;9.45;;;;;;;2.81;100.00;101630.84;10477524;28;20139;-76
2023/03/05 08:33:21;;;;;;;23.50;9.93;;;;;;;3.02;100.00;101627.63;10513624;28;20045;-74
2023/03/05 08:38:21;;;;;;;12.63;6.40;;;;;;;3.12;100.00;101618.09;10441292;28;20041;-76
2023/03/05 08:43:22;;;;;;;11.20;6.18;;;;;;;3.30;100.00;101619.75;10440872;28;20124;-76
2023/03/05 08:48:22;;;;;;;11.07;5.78;;;;;;;3.23;100.00;101605.34;10451084;28;20037;-76
2023/03/05 08:53:23;;;;;;;14.20;7.55;;;;;;;3.41;100.00;101606.84;10445836;28;20550;-75
2023/03/05 08:58:24;;;;;;;11.40;6.80;;;;;;;3.44;100.00;101601.94;10427480;28;20049;-75
2023/03/05 09:03:24;;;;;;;12.35;7.30;;;;;;;3.18;100.00;101609.19;10422604;28;20619;-75
2023/03/05 09:08:29;;;;;;;20.00;8.20;;;;;;;3.16;100.00;101597.81;10416422;28;20041;-75
2023/03/05 09:13:29;;;;;;;9.55;6.45;;;;;;;3.20;100.00;101589.53;10468502;28;20037;-75
2023/03/05 09:18:30;;;;;;;16.08;8.32;;;;;;;3.61;100.00;101585.28;10448900;28;20098;-75
2023/03/05 09:23:30;;;;;;;11.70;7.03;;;;;;;3.98;100.00;101585.88;10439327;28;20385;-75
2023/03/05 09:28:31;;;;;;;13.32;9.00;;;;;;;3.98;100.00;101570.34;10429014;28;20120;-75
2023/03/05 09:33:32;;;;;;;12.40;7.68;;;;;;;4.31;100.00;101568.78;10461799;28;20080;-76
2023/03/05 09:38:32;;;;;;;9.40;6.38;;;;;;;4.76;100.00;101559.53;10433037;28;20533;-76
2023/03/05 09:43:38;;;;;;;29.63;13.38;;;;;;;4.68;100.00;101547.63;10461581;28;20132;-76
2023/03/05 09:48:49;;;;;;;7.30;4.95;;;;;;;4.39;100.00;101541.84;10479026;28;20055;-76
2023/03/05 09:53:55;;;;;;;9.53;6.47;;;;;;;4.44;100.00;101541.31;10463324;28;20522;-75
2023/03/05 09:59:21;;;;;;;14.07;8.00;;;;;;;4.69;100.00;101537.38;10440470;28;20045;-74
2023/03/05 10:04:46;;;;;;;20.77;13.32;;;;;;;4.84;100.00;101529.97;10426313;28;20061;-75
2023/03/05 10:09:55;;;;;;;13.50;8.20;;;;;;;5.26;100.00;101538.47;10379579;28;20033;-75
2023/03/05 10:14:56;;;;;;;11.15;5.93;;;;;;;5.95;100.00;101522.97;10393155;28;20099;-74
2023/03/05 10:20:01;;;;;;;7.38;4.32;;;;;;;6.53;100.00;101512.59;10441723;28;20052;-74
2023/03/05 10:25:09;;;;;;;9.15;4.75;;;;;;;6.66;100.00;101501.44;10462343;28;20417;-74
2023/03/05 10:30:32;;;;;;;8.07;5.20;;;;;;;6.27;100.00;101494.28;10483555;28;20132;-74
2023/03/05 10:35:44;;;;;;;5.40;2.53;;;;;;;6.04;100.00;101500.31;10437165;28;20041;-74
2023/03/05 10:40:45;;;;;;;14.88;5.97;;;;;;;6.15;100.00;101489.06;10420846;28;20032;-75
2023/03/05 10:45:50;;;;;;;8.98;4.85;;;;;;;5.88;100.00;101487.84;10396413;28;20042;-74
2023/03/05 10:50:56;;;;;;;7.95;3.72;;;;;;;5.70;100.00;101485.63;10422332;28;20102;-75
2023/03/05 10:56:00;;;;;;;6.00;2.45;;;;;;;5.43;100.00;101482.72;10403192;28;20041;-75
2023/03/05 11:01:05;;;;;;;5.13;2.83;;;;;;;5.47;100.00;101482.94;10473398;28;20049;-75
2023/03/05 11:06:06;;;;;;;5.32;2.40;;;;;;;5.57;100.00;101477.69;10414771;28;20767;-75
2023/03/05 11:11:11;;;;;;;5.60;2.80;;;;;;;5.52;100.00;101473.81;10468339;28;20049;-76
2023/03/05 11:16:19;;;;;;;6.43;3.15;;;;;;;5.54;100.00;101465.34;10416135;28;20037;-75
2023/03/05 11:21:26;;;;;;;8.10;1.90;;;;;;;5.50;100.00;101463.31;10409380;28;20037;-75
2023/03/05 11:26:27;;;;;;;8.55;2.72;;;;;;;5.92;100.00;101452.59;10406867;28;20051;-76
2023/03/05 11:31:30;;;;;;;3.50;2.30;;;;;;;5.78;100.00;101438.56;10416935;28;20522;-75
2023/03/05 11:36:37;;;;;;;5.93;3.05;;;;;;;5.74;100.00;101434.81;10395799;28;20034;-76
2023/03/05 11:41:58;;;;;;;6.65;2.72;;;;;;;5.62;100.00;101434.81;10447590;28;20419;-76
2023/03/05 11:47:00;;;;;;;4.13;2.40;;;;;;;5.73;100.00;101431.31;10446252;28;20120;-76
2023/03/05 11:52:21;;;;;;;;;;;;;;;6.09;100.00;101421.00;10429843;28;20084;-75
2023/03/05 11:57:22;;;;;;;6.57;2.92;;;;;;;6.88;100.00;101413.75;10419336;28;19939;-76
2023/03/05 12:02:24;;;;;;;5.82;3.30;;;;;;;6.40;100.00;101394.69;10416265;28;20053;-75
2023/03/05 12:07:40;;;;;;;7.95;4.88;;;;;;;5.83;100.00;101393.94;10415467;28;20034;-76
2023/03/05 12:12:47;;;;;;;10.40;3.97;;;;;;;5.53;100.00;101385.66;10383845;28;20046;-76
2023/03/05 12:18:09;;;;;;;8.55;3.78;;;;;;;5.55;100.00;101383.19;10448714;28;20102;-74
2023/03/05 12:23:15;;;;;;;7.22;3.10;;;;;;;5.43;100.00;101368.47;10431183;28;20099;-75
2023/03/05 12:28:31;;;;;;;6.68;3.58;;;;;;;5.31;100.00;101358.81;10436076;28;20033;-76
2023/03/05 12:33:35;;;;;;;5.97;2.60;;;;;;;5.39;100.00;101355.13;10408700;28;20049;-74
2023/03/05 12:38:36;;;;;;;5.40;3.42;;;;;;;5.49;100.00;101342.06;10467125;28;20068;-75
2023/03/05 12:43:37;;;;;;;9.38;3.80;;;;;;;5.98;100.00;101337.06;10444238;28;20423;-75
2023/03/05 12:48:41;;;;;;;7.70;4.13;;;;;;;6.33;100.00;101324.84;10470930;28;20044;-76
2023/03/05 12:53:42;;;;;;;9.52;3.83;;;;;;;6.30;100.00;101311.63;10474475;28;20040;-74
2023/03/05 12:58:47;;;;;;;5.85;4.05;;;;;;;6.01;100.00;101294.81;10437948;28;20121;-75
2023/03/05 13:03:59;;;;;;;7.53;3.42;;;;;;;5.79;100.00;101294.91;10428045;28;20488;-75
2023/03/05 13:09:02;;;;;;;10.90;2.88;;;;;;;5.98;100.00;101282.47;10423232;28;20048;-75
2023/03/05 13:14:03;;;;;;;6.53;3.10;;;;;;;6.21;100.00;101272.88;10404554;28;20509;-75
2023/03/05 13:19:03;;;;;;;5.22;2.40;;;;;;;6.16;100.00;101269.94;10438286;28;20170;-75
2023/03/05 13:24:15;;;;;;;5.30;2.47;;;;;;;6.07;100.00;101261.47;10423623;28;20080;-75
2023/03/05 13:29:20;;;;;;;3.80;2.47;;;;;;;5.90;100.00;101249.84;10470832;28;20052;-75
2023/03/05 13:34:28;;;;;;;3.50;1.73;;;;;;;5.94;100.00;101251.88;10511263;28;20467;-75
2023/03/05 13:40:05;;;;;;;8.82;2.50;;;;;;;5.95;100.00;101238.09;10395254;28;20405;-75
2023/03/05 13:45:23;;;;;;;3.90;1.73;;;;;;;6.11;100.00;101227.13;10381635;28;20065;-77
2023/03/05 13:50:43;;;;;;;2.45;1.63;;;;;;;5.89;100.00;101222.06;10452148;28;20045;-76
2023/03/05 13:55:45;;;;;;;3.65;2.17;;;;;;;5.91;100.00;101219.56;10437866;28;20056;-76
2023/03/05 14:00:45;;;;;;;3.35;1.65;;;;;;;5.99;100.00;101213.22;10480133;28;20036;-75
2023/03/05 14:05:46;;;;;;;4.00;2.78;;;;;;;5.75;100.00;101212.38;10463502;28;20078;-75
2023/03/05 14:10:47;;;;;;;6.72;4.63;;;;;;;5.59;100.00;101209.53;10446437;28;20069;-75
2023/03/05 14:16:07;;;;;;;3.92;2.60;;;;;;;5.58;100.00;101193.84;10413306;28;20075;-75
2023/03/05 14:21:09;;;;;;;5.10;2.30;;;;;;;5.66;100.00;101191.81;10441282;28;20385;-75
2023/03/05 14:26:19;;;;;;;3.60;1.80;;;;;;;5.63;100.00;101186.38;10440803;28;20037;-76
2023/03/05 14:31:20;;;;;;;3.55;2.40;;;;;;;5.61;100.00;101174.97;10485555;28;20041;-75
2023/03/05 14:36:25;;;;;;;4.50;2.40;;;;;;;5.65;100.00;101167.53;10461290;28;20036;-75
2023/03/05 14:41:31;;;;;;;5.97;2.38;;;;;;;5.35;100.00;101155.81;10439652;28;20045;-75
2023/03/05 14:46:31;;;;;;;5.10;2.90;;;;;;;5.21;100.00;101157.41;10450508;28;20040;-75
2023/03/05 14:51:34;;;;;;;7.25;3.85;;;;;;;5.21;100.00;101140.13;10444497;28;20123;-75
2023/03/05 14:56:34;;;;;;;4.65;2.85;;;;;;;5.34;100.00;101141.03;10427328;28;20116;-74
2023/03/05 15:01:35;;;;;;;5.10;3.05;;;;;;;5.57;100.00;101140.13;10407229;28;20033;-74
2023/03/05 15:06:37;;;;;;;11.93;6.28;;;;;;;5.68;100.00;101127.91;10401986;28;20481;-74
2023/03/05 15:11:38;;;;;;;7.72;4.47;;;;;;;5.59;100.00;101122.97;10437484;28;20062;-74
2023/03/05 15:16:39;;;;;;;7.50;3.40;;;;;;;5.34;100.00;101121.19;10504962;28;20432;-75
2023/03/05 15:21:40;;;;;;;9.18;5.18;;;;;;;4.90;100.00;101111.91;10442867;28;20041;-75
2023/03/05 15:26:40;;;;;;;8.40;4.65;;;;;;;4.68;100.00;101117.19;10444317;28;20036;-75
2023/03/05 15:31:41;;;;;;;9.38;4.53;;;;;;;4.47;100.00;101113.88;10473454;28;20139;-74
2023/03/05 15:36:41;;;;;;;9.38;4.50;;;;;;;4.26;100.00;101102.00;10461432;28;20053;-75
2023/03/05 15:41:42;;;;;;;10.70;4.88;;;;;;;4.14;100.00;101089.78;10434967;28;20060;-75
2023/03/05 15:46:43;;;;;;;11.65;5.50;;;;;;;3.91;100.00;101089.81;10463605;28;20204;-75
2023/03/05 15:51:43;;;;;;;7.10;4.75;;;;;;;3.81;100.00;101089.88;10449730;28;20041;-75
2023/03/05 15:56:44;;;;;;;8.57;3.67;;;;;;;3.74;100.00;101085.88;10440682;28;20036;-74
2023/03/05 16:01:47;;;;;;;6.53;4.07;;;;;;;3.58;100.00;101075.09;10443061;28;20120;-75
2023/03/05 16:06:48;;;;;;;4.22;3.45;;;;;;;3.52;100.00;101068.66;10427628;28;20128;-75
2023/03/05 16:11:50;;;;;;;7.60;3.65;;;;;;;3.42;100.00;101058.34;10450149;28;20041;-75
2023/03/05 16:16:51;;;;;;;;;;;;;;;3.33;100.00;101055.97;10448184;28;20079;-75
2023/03/05 16:21:51;;;;;;;17.13;4.40;;;;;;;3.28;100.00;101052.09;10434169;28;19928;-75
2023/03/05 16:26:52;;;;;;;9.38;4.90;;;;;;;3.25;100.00;101054.44;10447308;28;20136;-74
2023/03/05 16:31:53;;;;;;;8.55;5.15;;;;;;;3.10;100.00;101050.63;10465966;28;20143;-75
2023/03/05 16:36:57;;;;;;;8.23;4.57;;;;;;;3.07;100.00;101048.69;10443325;28;20045;-75
2023/03/05 16:41:58;;;;;;;9.25;4.78;;;;;;;3.03;100.00;101046.63;10432588;28;20125;-75
2023/03/05 16:46:58;;;;;;;7.80;5.00;;;;;;;2.96;100.00;101033.97;10442480;28;20634;-74
2023/03/05 16:51:59;;;;;;;10.00;7.05;;;;;;;2.89;100.00;101030.91;10443766;28;20068;-73
2023/03/05 16:57:00;;;;;;;8.52;5.25;;;;;;;2.83;100.00;101024.34;10429682;28;20910;-73
2023/03/05 17:02:00;;;;;;;13.65;6.15;;;;;;;2.70;100.00;101022.41;10459047;28;20071;-74
2023/03/05 17:07:02;;;;;;;11.35;6.43;;;;;;;2.63;100.00;101027.09;10446358;28;20047;-73
2023/03/05 17:12:04;;;;;;;7.15;5.32;;;;;;;2.56;100.00;101027.34;10453620;28;20032;-74
2023/03/05 17:17:04;;;;;;;9.63;5.33;;;;;;;2.49;100.00;101018.22;10427538;28;20044;-73
2023/03/05 17:22:05;;;;;;;7.18;4.05;;;;;;;2.49;100.00;101015.63;10445987;28;20374;-74
2023/03/05 17:27:05;;;;;;;7.30;4.90;;;;;;;2.44;100.00;101022.09;10445906;28;20045;-74
2023/03/05 17:32:06;;;;;;;7.95;4.70;;;;;;;2.40;100.00;101024.28;10412536;28;20128;-74
2023/03/05 17:37:07;;;;;;;9.98;5.63;;;;;;;2.38;100.00;101019.00;10450095;28;20061;-75
2023/03/05 17:42:08;;;;;;;8.33;5.03;;;;;;;2.34;100.00;101022.13;10446289;28;20052;-74
2023/03/05 17:47:09;;;;;;;8.18;5.43;;;;;;;2.29;100.00;101013.97;10445641;28;20045;-74
2023/03/05 17:52:09;;;;;;;10.00;5.32;;;;;;;2.23;100.00;101015.16;10459948;28;20441;-74
2023/03/05 17:57:10;;;;;;;16.67;6.88;;;;;;;2.25;100.00;101016.19;10487547;28;20044;-74
2023/03/05 18:02:11;;;;;;;9.23;5.68;;;;;;;2.22;100.00;101015.94;10467841;28;20128;-74
2023/03/05 18:07:11;;;;;;;10.07;5.35;;;;;;;2.25;100.00;101017.06;10483065;28;20037;-75
2023/03/05 18:12:12;;;;;;;12.00;6.70;;;;;;;2.25;100.00;101016.19;10485128;28;20078;-76
2023/03/05 18:17:12;;;;;;;10.00;5.47;;;;;;;2.27;100.00;101012.03;10455822;28;20112;-76
2023/03/05 18:22:13;;;;;;;8.75;5.95;;;;;;;2.26;100.00;101008.53;10481492;28;20143;-75
2023/03/05 18:27:14;;;;;;;6.95;4.60;;;;;;;2.24;100.00;100989.44;10447735;28;20057;-75
2023/03/05 18:32:14;;;;;;;9.20;4.60;;;;;;;2.28;100.00;100982.84;10456629;28;20439;-74
2023/03/05 18:37:15;;;;;;;9.30;5.22;;;;;;;2.29;100.00;100989.84;10444576;28;20045;-74
2023/03/05 18:42:15;;;;;;;11.90;4.05;;;;;;;2.27;100.00;100988.81;10443966;28;20123;-75
2023/03/05 18:47:16;;;;;;;4.97;3.63;;;;;;;2.26;100.00;100985.31;10444661;28;20429;-74
2023/03/05 18:52:16;;;;;;;8.82;4.18;;;;;;;2.23;100.00;100982.47;10442537;28;20124;-75
2023/03/05 18:57:17;;;;;;;6.82;4.25;;;;;;;2.24;100.00;100984.25;10442392;28;20132;-74
2023/03/05 19:02:17;;;;;;;8.43;4.95;;;;;;;2.29;100.00;100977.81;10442097;28;20127;-75
2023/03/05 19:07:18;;;;;;;12.85;6.03;;;;;;;2.25;100.00;100980.91;10442758;28;20545;-75
2023/03/05 19:12:19;;;;;;;10.57;4.80;;;;;;;2.30;100.00;100970.97;10476785;28;20178;-75
2023/03/05 19:17:19;;;;;;;11.90;5.47;;;;;;;2.28;100.00;100970.81;10464027;28;20060;-75
2023/03/05 19:22:20;;;;;;;10.80;5.15;;;;;;;2.29;100.00;100970.06;10470533;28;20082;-75
2023/03/05 19:27:21;;;;;;;10.88;6.82;;;;;;;2.28;100.00;100968.25;10466725;28;20040;-75
2023/03/05 19:32:22;;;;;;;12.27;5.95;;;;;;;2.30;100.00;100965.81;10451466;28;20431;-74
2023/03/05 19:37:23;;;;;;;11.90;6.40;;;;;;;2.29;100.00;100964.88;10441999;28;20111;-75
2023/03/05 19:42:23;;;;;;;11.02;6.30;;;;;;;2.27;100.00;100947.47;10441927;28;20037;-75
2023/03/05 19:47:24;;;;;;;7.38;5.88;;;;;;;2.28;100.00;100942.41;10411083;28;20040;-75
2023/03/05 19:52:26;;;;;;;9.13;6.65;;;;;;;2.24;100.00;100936.91;10437051;28;20112;-74
2023/03/05 19:57:26;;;;;;;10.52;6.47;;;;;;;2.20;100.00;100933.13;10440319;28;20033;-75
2023/03/05 20:02:28;;;;;;;9.57;5.18;;;;;;;2.13;100.00;100929.16;10478800;28;20029;-75
2023/03/05 20:07:28;;;;;;;7.72;5.57;;;;;;;2.07;100.00;100922.56;10480964;28;20036;-74
2023/03/05 20:12:29;;;;;;;8.25;5.32;;;;;;;2.06;100.00;100921.69;10421221;28;20191;-75
2023/03/05 20:17:30;;;;;;;11.77;5.38;;;;;;;2.01;100.00;100923.00;10399807;28;20061;-75
2023/03/05 20:22:30;;;;;;;10.48;5.80;;;;;;;2.01;100.00;100910.06;10475664;28;20139;-75
2023/03/05 20:27:32;;;;;;;8.85;4.97;;;;;;;1.96;100.00;100914.84;10442168;28;20489;-75
2023/03/05 20:32:33;;;;;;;8.60;5.70;;;;;;;1.86;100.00;100910.63;10467613;28;20064;-75
2023/03/05 20:37:38;;;;;;;9.73;5.53;;;;;;;1.81;100.00;100904.16;10450214;28;20119;-75
2023/03/05 20:42:39;;;;;;;6.18;4.15;;;;;;;1.78;100.00;100903.00;10443847;28;20045;-74
2023/03/05 20:47:44;;;;;;;7.40;4.65;;;;;;;1.76;100.00;100898.59;10475018;28;20037;-75
2023/03/05 20:52:46;;;;;;;7.18;4.45;;;;;;;1.75;100.00;100890.75;10456312;28;20033;-74
2023/03/05 20:57:46;;;;;;;8.17;4.70;;;;;;;1.70;100.00;100890.34;10449305;28;20045;-74
2023/03/05 21:02:49;;;;;;;7.22;4.85;;;;;;;1.67;100.00;100878.88;10480864;28;20126;-75
2023/03/05 21:07:49;;;;;;;8.00;4.32;;;;;;;1.60;100.00;100875.78;10446168;28;20115;-74
2023/03/05 21:12:50;;;;;;;8.80;4.78;;;;;;;1.63;100.00;100869.09;10464247;28;20051;-74
2023/03/05 21:17:51;;;;;;;7.20;4.63;;;;;;;1.58;100.00;100867.03;10478518;28;20049;-75
2023/03/05 21:22:52;;;;;;;9.68;6.00;;;;;;;1.53;100.00;100864.81;10445471;28;20062;-75
2023/03/05 21:28:02;;;;;;;13.07;4.90;;;;;;;1.46;100.00;100860.84;10468903;28;20500;-75
2023/03/05 21:33:05;;;;;;;8.13;5.68;;;;;;;1.46;100.00;100851.41;10469039;28;20520;-75
2023/03/05 21:38:06;;;;;;;10.85;5.85;;;;;;;1.44;100.00;100849.50;10444476;28;20029;-75
2023/03/05 21:43:06;;;;;;;9.18;5.65;;;;;;;1.39;100.00;100849.09;10456049;28;20128;-75
2023/03/05 21:48:07;;;;;;;8.57;6.50;;;;;;;1.30;100.00;100840.56;10446586;28;20123;-74
2023/03/05 21:53:08;;;;;;;10.20;7.05;;;;;;;1.23;100.00;100836.59;10480672;28;20048;-74
2023/03/05 21:58:08;;;;;;;9.95;6.72;;;;;;;1.27;100.00;100832.56;10465454;28;20060;-75
2023/03/05 22:03:09;;;;;;;13.60;7.45;;;;;;;1.22;100.00;100820.97;10405460;28;20108;-74
2023/03/05 22:08:09;;;;;;;9.50;5.93;;;;;;;1.19;100.00;100816.47;10436432;28;20029;-75
2023/03/05 22:18:11;;;;;;;10.70;8.00;;;;;;;1.14;100.00;100810.91;10516412;28;20067;-74
2023/03/05 22:23:12;;;;;;;10.73;7.20;;;;;;;1.13;100.00;100798.81;10443627;28;20080;-74
2023/03/05 22:28:12;;;;;;;10.15;7.75;;;;;;;1.10;100.00;100788.22;10458418;28;20144;-75
2023/03/05 22:33:13;;;;;;;16.23;9.18;;;;;;;1.14;100.00;100779.09;10484429;28;20127;-74
2023/03/05 22:38:13;;;;;;;16.73;9.60;;;;;;;1.22;100.00;100774.56;10462672;28;20060;-75
2023/03/05 22:43:14;;;;;;;13.07;8.68;;;;;;;1.29;100.00;100780.38;10446703;28;20125;-74
2023/03/05 22:48:14;;;;;;;16.75;9.27;;;;;;;1.29;100.00;100775.22;10449151;28;20041;-75
2023/03/05 22:53:15;;;;;;;16.60;11.77;;;;;;;1.29;100.00;100766.56;10507376;28;20033;-75
2023/03/05 22:58:15;;;;;;;15.80;10.68;;;;;;;1.28;100.00;100760.53;10438931;28;20439;-75
2023/03/05 23:03:16;;;;;;;16.60;10.30;;;;;;;1.32;100.00;100753.94;10442643;28;20045;-75
2023/03/05 23:08:16;;;;;;;18.17;11.77;;;;;;;1.33;100.00;100745.41;10456864;28;20127;-74